createdAt,value
2019-03-31T00:01:08.644Z,7.97
2019-03-31T00:03:41.591Z,7.97
2019-03-31T00:06:11.182Z,8.09
2019-03-31T00:08:40.719Z,7.77
2019-03-31T00:11:10.104Z,7.80
2019-03-31T00:13:40.693Z,7.75
2019-03-31T00:16:10.110Z,7.83
2019-03-31T00:18:39.466Z,8.04
2019-03-31T00:21:08.939Z,7.78
2019-03-31T00:23:38.291Z,7.70
2019-03-31T00:26:07.764Z,7.75
2019-03-31T00:28:37.167Z,7.75
2019-03-31T00:31:07.132Z,7.73
2019-03-31T00:33:36.525Z,7.93
2019-03-31T00:36:06.341Z,7.92
2019-03-31T00:38:38.824Z,7.57
2019-03-31T00:41:08.242Z,7.83
2019-03-31T00:43:37.661Z,7.93
2019-03-31T00:46:07.260Z,7.78
2019-03-31T00:48:36.705Z,7.82
2019-03-31T00:51:06.345Z,7.67
2019-03-31T00:53:35.729Z,7.77
2019-03-31T00:56:05.658Z,7.70
2019-03-31T00:58:34.976Z,7.90
2019-03-31T01:01:35.742Z,7.77
2019-03-31T01:03:54.343Z,7.82
2019-03-31T02:59:45.251Z,7.37
2019-03-31T03:35:21.274Z,7.66
2019-03-31T03:38:11.492Z,7.52
2019-03-31T03:41:10.221Z,7.46
2019-03-31T04:35:30.397Z,7.46
2019-03-31T06:07:04.709Z,6.86
2019-03-31T06:09:58.857Z,6.82
2019-03-31T12:40:06.638Z,11.36
2019-03-31T12:42:57.513Z,11.30
2019-03-31T12:45:30.365Z,11.58
2019-03-31T12:48:01.763Z,11.60
2019-03-31T13:00:58.000Z,11.71
2019-03-31T13:15:54.180Z,11.82
2019-03-31T13:18:55.699Z,11.66
2019-03-31T13:25:34.704Z,11.48
2019-03-31T13:28:36.161Z,12.01
2019-03-31T13:32:10.604Z,12.38
2019-03-31T13:34:52.942Z,12.34
2019-03-31T13:38:10.791Z,11.81
2019-03-31T13:40:55.964Z,11.87
